Time;durP1;ratioP1;P1;durP2;ratioP2;P2;SDS_P1;SDS_P2;PMS_P1;PMS_P2;Temp;Humidity;BMP_temperature;BMP_pressure;BME280_temperature;BME280_humidity;BME280_pressure;Samples;Min_cycle;Max_cycle;Signal;HPM_P1;HPM_P2
2022/02/13 00:00:48;;;;;;;10.57;5.60;;;5.20;56.70;;;;;;5014483;28;20032;-60
2022/02/13 00:03:14;;;;;;;10.02;6.03;;;5.20;56.70;;;;;;5014762;28;20066;-61
2022/02/13 00:05:40;;;;;;;10.00;6.03;;;5.20;56.70;;;;;;4996660;28;20380;-61
2022/02/13 00:08:06;;;;;;;10.10;5.80;;;5.20;56.70;;;;;;5014828;28;20072;-60
2022/02/13 00:10:32;;;;;;;8.48;5.75;;;5.20;56.60;;;;;;5013819;28;20108;-61
2022/02/13 00:12:58;;;;;;;10.40;6.63;;;5.20;56.70;;;;;;5014672;28;20029;-60
2022/02/13 00:15:25;;;;;;;10.70;5.47;;;5.30;56.70;;;;;;5014216;28;20049;-61
2022/02/13 00:17:50;;;;;;;11.93;6.43;;;5.20;56.50;;;;;;5013121;28;20484;-60
2022/02/13 00:20:16;;;;;;;10.35;5.88;;;5.30;56.40;;;;;;5014807;28;20030;-60
2022/02/13 00:22:42;;;;;;;9.90;5.78;;;5.30;56.50;;;;;;4996248;28;20053;-59
2022/02/13 00:25:08;;;;;;;9.32;5.97;;;5.30;56.40;;;;;;5014043;28;20496;-63
2022/02/13 00:27:33;;;;;;;10.25;6.20;;;5.30;57.10;;;;;;5013709;28;20391;-61
2022/02/13 00:29:59;;;;;;;11.60;5.88;;;5.20;56.40;;;;;;5014049;28;20026;-61
2022/02/13 00:32:27;;;;;;;11.68;5.70;;;5.20;56.40;;;;;;5012795;28;20037;-64
2022/02/13 00:34:53;;;;;;;8.63;5.30;;;5.20;56.30;;;;;;5013792;28;20068;-62
2022/02/13 00:37:19;;;;;;;9.88;5.22;;;5.30;56.30;;;;;;5013055;28;20030;-60
2022/02/13 00:39:45;;;;;;;9.25;5.47;;;5.20;56.20;;;;;;5013371;28;20207;-63
2022/02/13 00:42:10;;;;;;;10.05;5.65;;;5.30;56.20;;;;;;5012710;28;20053;-60
2022/02/13 00:44:37;;;;;;;9.23;5.25;;;5.30;56.10;;;;;;4995441;28;20036;-61
2022/02/13 00:47:21;;;;;;;9.00;4.60;;;5.20;56.00;;;;;;4995510;28;20365;-60
2022/02/13 00:49:47;;;;;;;7.32;4.85;;;5.20;55.80;;;;;;4994952;28;20069;-61
2022/02/13 00:52:12;;;;;;;8.48;5.10;;;5.30;55.80;;;;;;5013534;28;20057;-61
2022/02/13 00:54:39;;;;;;;9.55;5.30;;;5.30;55.70;;;;;;5012902;28;20030;-61
2022/02/13 00:57:05;;;;;;;9.18;5.05;;;5.20;55.70;;;;;;5013406;28;20034;-60
2022/02/13 00:59:30;;;;;;;7.75;4.88;;;5.20;55.70;;;;;;5013209;28;20465;-60
2022/02/13 01:01:56;;;;;;;13.80;5.32;;;5.20;55.70;;;;;;5013149;28;20376;-60
2022/02/13 01:04:22;;;;;;;8.13;4.72;;;5.20;55.60;;;;;;5013348;28;20029;-60
2022/02/13 01:06:48;;;;;;;10.30;5.68;;;5.20;55.50;;;;;;5012727;28;20036;-62
2022/02/13 01:09:13;;;;;;;9.40;5.22;;;5.20;55.50;;;;;;4995623;28;20061;-60
2022/02/13 01:11:39;;;;;;;7.30;5.00;;;5.20;55.50;;;;;;5012971;28;20041;-61
2022/02/13 01:14:05;;;;;;;8.38;5.15;;;5.20;55.40;;;;;;5013527;28;20076;-63
2022/02/13 01:16:31;;;;;;;8.50;4.97;;;5.20;55.50;;;;;;5012291;28;20022;-60
2022/02/13 01:18:57;;;;;;;13.90;5.47;;;5.20;55.40;;;;;;4995631;28;20037;-62
2022/02/13 01:21:23;;;;;;;7.15;4.78;;;5.20;55.40;;;;;;5013503;28;20026;-61
2022/02/13 01:23:49;;;;;;;7.97;4.82;;;5.20;55.50;;;;;;4994502;28;20033;-62
2022/02/13 01:26:15;;;;;;;9.63;5.32;;;5.20;55.40;;;;;;5013356;28;20025;-61
2022/02/13 01:28:41;;;;;;;8.75;4.65;;;5.20;55.40;;;;;;5012489;28;20487;-63
2022/02/13 01:31:08;;;;;;;8.55;4.85;;;5.20;55.40;;;;;;4995483;28;20024;-61
2022/02/13 01:33:34;;;;;;;7.25;4.75;;;5.20;55.40;;;;;;4994958;28;20025;-61
2022/02/13 01:36:01;;;;;;;8.45;4.50;;;5.10;55.40;;;;;;5012746;28;20025;-62
2022/02/13 01:38:27;;;;;;;7.38;4.88;;;5.10;55.40;;;;;;4994909;28;20034;-61
2022/02/13 01:40:53;;;;;;;7.78;4.97;;;5.10;55.50;;;;;;5011888;28;20108;-61
2022/02/13 01:43:19;;;;;;;12.82;4.78;;;5.10;55.50;;;;;;5012465;28;20503;-63
2022/02/13 01:45:46;;;;;;;6.72;5.10;;;5.10;55.50;;;;;;5011372;28;20061;-60
2022/02/13 01:48:12;;;;;;;6.57;4.60;;;5.10;56.10;;;;;;5012643;28;20037;-62
2022/02/13 01:50:40;;;;;;;8.70;4.97;;;5.10;55.40;;;;;;5012401;28;20030;-60
2022/02/13 01:53:06;;;;;;;9.55;4.95;;;5.10;55.40;;;;;;5012136;28;20469;-62
2022/02/13 01:55:32;;;;;;;9.38;4.75;;;5.10;55.50;;;;;;5012491;28;20026;-63
2022/02/13 01:57:58;;;;;;;9.07;4.85;;;5.10;55.40;;;;;;4994744;28;20121;-60
2022/02/13 02:00:24;;;;;;;6.70;4.25;;;5.10;55.40;;;;;;5012902;28;20076;-60
2022/02/13 02:02:50;;;;;;;6.93;4.63;;;5.10;55.30;;;;;;5012090;28;20075;-60
2022/02/13 02:05:16;;;;;;;7.82;4.53;;;5.10;55.40;;;;;;5012266;28;20108;-62
2022/02/13 02:07:42;;;;;;;6.53;4.50;;;5.10;55.40;;;;;;5011200;28;20052;-60
2022/02/13 02:10:09;;;;;;;7.57;4.70;;;5.10;55.30;;;;;;5012035;28;20482;-60
2022/02/13 02:12:38;;;;;;;6.35;4.32;;;5.10;55.40;;;;;;4994336;28;20088;-59
2022/02/13 02:15:06;;;;;;;9.52;4.75;;;5.10;55.40;;;;;;4994667;28;20084;-61
2022/02/13 02:17:33;;;;;;;7.72;4.47;;;5.10;55.30;;;;;;4994730;28;20053;-60
2022/02/13 02:19:58;;;;;;;8.43;4.30;;;5.10;55.30;;;;;;5011823;28;20057;-65
2022/02/13 02:22:24;;;;;;;7.22;4.35;;;5.10;55.30;;;;;;5012519;28;20061;-60
2022/02/13 02:24:50;;;;;;;9.25;4.32;;;5.00;55.30;;;;;;5011901;28;20398;-61
2022/02/13 02:27:16;;;;;;;7.50;4.75;;;5.00;55.20;;;;;;4994632;28;20034;-61
2022/02/13 02:29:42;;;;;;;7.13;4.18;;;5.00;55.30;;;;;;4993851;28;20054;-62
2022/02/13 02:32:11;;;;;;;6.70;3.95;;;5.00;55.20;;;;;;5011844;28;20120;-61
2022/02/13 02:34:38;;;;;;;9.50;4.47;;;5.00;55.20;;;;;;4994534;28;20022;-63
2022/02/13 02:37:05;;;;;;;6.72;4.38;;;5.00;55.20;;;;;;4994194;28;20030;-61
2022/02/13 02:39:31;;;;;;;7.47;4.10;;;5.00;55.30;;;;;;5012087;28;20105;-61
2022/02/13 02:41:57;;;;;;;10.27;4.13;;;5.00;55.20;;;;;;5011186;28;20032;-61
2022/02/13 02:44:23;;;;;;;8.73;4.57;;;5.00;55.20;;;;;;4994602;28;20030;-60
2022/02/13 02:46:48;;;;;;;8.70;4.60;;;5.00;55.10;;;;;;5011001;28;20045;-60
2022/02/13 02:49:14;;;;;;;10.77;4.60;;;5.00;55.10;;;;;;5012320;28;20483;-61
2022/02/13 02:51:40;;;;;;;8.80;3.97;;;5.00;55.10;;;;;;5011582;28;20037;-62
2022/02/13 02:54:05;;;;;;;7.30;4.18;;;5.00;55.00;;;;;;4994319;28;20022;-61
2022/02/13 02:56:31;;;;;;;6.55;4.25;;;5.10;55.00;;;;;;4996348;28;20037;-60
2022/02/13 02:58:57;;;;;;;6.63;4.35;;;5.10;55.10;;;;;;4998184;28;20552;-61
2022/02/13 03:01:23;;;;;;;7.03;3.95;;;5.10;55.10;;;;;;4998738;28;20056;-61
2022/02/13 03:03:49;;;;;;;7.00;4.22;;;5.00;54.90;;;;;;5014901;28;20472;-62
2022/02/13 03:06:15;;;;;;;7.32;4.40;;;5.00;54.90;;;;;;5016062;28;20384;-61
2022/02/13 03:08:41;;;;;;;7.05;4.22;;;5.00;54.90;;;;;;5015125;28;20036;-61
2022/02/13 03:11:07;;;;;;;5.10;3.63;;;5.00;54.90;;;;;;4998207;28;20539;-61
2022/02/13 03:13:33;;;;;;;8.48;4.20;;;5.10;55.00;;;;;;5014565;28;20026;-60
2022/02/13 03:15:59;;;;;;;9.13;4.13;;;5.00;54.80;;;;;;4997736;28;20495;-61
2022/02/13 03:18:26;;;;;;;7.57;3.90;;;5.00;54.90;;;;;;4997964;28;20120;-61
2022/02/13 03:20:53;;;;;;;6.20;3.65;;;5.00;54.90;;;;;;5015354;28;20026;-60
2022/02/13 03:23:19;;;;;;;6.72;3.78;;;5.00;54.90;;;;;;4998106;28;20033;-60
2022/02/13 03:25:45;;;;;;;5.88;4.13;;;5.00;54.90;;;;;;5014786;28;20058;-62
2022/02/13 03:28:12;;;;;;;6.95;4.22;;;5.00;54.80;;;;;;5015477;28;20034;-61
2022/02/13 03:30:39;;;;;;;6.75;3.97;;;5.00;54.80;;;;;;4981818;28;20026;-60
2022/02/13 03:33:05;;;;;;;8.00;4.20;;;5.00;54.80;;;;;;5015276;28;20033;-60
2022/02/13 03:35:31;;;;;;;6.03;3.85;;;5.00;54.70;;;;;;4996695;28;20033;-60
2022/02/13 03:37:57;;;;;;;6.20;3.90;;;5.00;54.70;;;;;;4996997;28;20032;-61
2022/02/13 03:40:23;;;;;;;6.40;4.03;;;5.00;54.60;;;;;;4997387;28;20034;-61
2022/02/13 03:42:48;;;;;;;5.88;4.25;;;5.00;54.60;;;;;;5014704;28;20026;-60
2022/02/13 03:45:14;;;;;;;8.40;4.00;;;5.00;54.70;;;;;;5015433;28;20033;-60
2022/02/13 03:47:42;;;;;;;6.78;3.67;;;5.00;54.60;;;;;;5015333;28;20022;-64
2022/02/13 03:50:08;;;;;;;8.52;3.92;;;5.00;54.70;;;;;;5015064;28;20034;-61
2022/02/13 03:52:34;;;;;;;6.57;4.05;;;5.00;54.70;;;;;;4997272;28;20389;-61
2022/02/13 03:55:00;;;;;;;6.55;4.00;;;5.00;54.80;;;;;;5014597;28;20476;-60
2022/02/13 03:57:28;;;;;;;8.82;4.40;;;4.90;54.80;;;;;;5015128;28;20026;-60
2022/02/13 03:59:57;;;;;;;7.53;4.50;;;5.00;54.80;;;;;;4996783;28;20133;-61
2022/02/13 04:02:22;;;;;;;7.28;3.90;;;4.90;54.90;;;;;;5014918;28;20033;-60
2022/02/13 04:04:49;;;;;;;7.53;4.07;;;4.90;54.80;;;;;;4996994;28;20033;-60
2022/02/13 04:07:15;;;;;;;6.43;4.32;;;4.90;54.90;;;;;;4995801;28;20448;-61
2022/02/13 04:09:42;;;;;;;6.30;4.15;;;4.90;54.90;;;;;;4996323;28;20068;-61
2022/02/13 04:12:09;;;;;;;7.07;3.85;;;4.80;54.90;;;;;;5013826;28;20033;-61
2022/02/13 04:14:35;;;;;;;7.78;4.28;;;4.80;55.00;;;;;;4996761;28;20469;-61
2022/02/13 04:17:00;;;;;;;7.35;3.95;;;4.80;55.00;;;;;;4995971;28;20092;-60
2022/02/13 04:19:27;;;;;;;6.60;4.10;;;4.80;55.10;;;;;;5014694;28;20026;-61
2022/02/13 04:21:52;;;;;;;5.93;3.67;;;4.80;55.00;;;;;;5013958;28;20076;-61
2022/02/13 04:24:18;;;;;;;6.32;3.90;;;4.80;55.00;;;;;;4995682;28;20403;-61
2022/02/13 04:26:44;;;;;;;8.18;3.90;;;4.80;55.10;;;;;;5013261;28;20029;-64
2022/02/13 04:29:10;;;;;;;4.85;3.53;;;4.80;55.20;;;;;;5013690;28;20092;-63
2022/02/13 04:31:36;;;;;;;6.70;4.07;;;4.70;55.10;;;;;;5013879;28;20388;-60
2022/02/13 04:34:07;;;;;;;6.38;4.20;;;4.80;55.20;;;;;;4996193;28;20029;-60
2022/02/13 04:36:36;;;;;;;7.57;4.18;;;4.80;55.20;;;;;;5014167;28;20025;-60
2022/02/13 04:39:03;;;;;;;6.88;4.40;;;4.80;55.20;;;;;;5013353;28;20030;-60
2022/02/13 04:41:29;;;;;;;6.13;4.20;;;4.70;55.20;;;;;;5014071;28;20080;-59
2022/02/13 04:43:54;;;;;;;7.75;4.50;;;4.80;55.20;;;;;;5013375;28;20026;-60
2022/02/13 04:46:20;;;;;;;5.30;4.03;;;4.70;55.30;;;;;;5013517;28;20033;-61
2022/02/13 04:48:45;;;;;;;10.20;4.70;;;4.70;55.40;;;;;;5013407;28;20096;-64
2022/02/13 04:51:11;;;;;;;5.30;4.13;;;4.70;55.50;;;;;;5013534;28;20030;-60
2022/02/13 04:53:37;;;;;;;9.45;4.82;;;4.70;55.50;;;;;;5014233;28;20025;-60
2022/02/13 04:56:04;;;;;;;8.93;4.78;;;4.70;55.80;;;;;;5013633;28;20026;-61
2022/02/13 04:58:31;;;;;;;7.88;5.20;;;4.60;55.80;;;;;;4995883;28;20029;-60
2022/02/13 05:00:57;;;;;;;9.40;4.45;;;4.60;56.10;;;;;;5012846;28;20113;-62
2022/02/13 05:03:24;;;;;;;9.35;5.05;;;4.60;56.10;;;;;;4995983;28;20153;-60
2022/02/13 05:05:51;;;;;;;7.57;5.05;;;4.50;56.30;;;;;;4995291;28;20026;-61
2022/02/13 05:08:17;;;;;;;7.93;4.72;;;4.50;56.60;;;;;;5012420;28;20033;-59
2022/02/13 05:10:43;;;;;;;10.02;5.72;;;4.40;56.70;;;;;;5013263;28;20022;-61
2022/02/13 05:13:09;;;;;;;7.53;5.15;;;4.40;56.80;;;;;;5012075;28;20032;-61
2022/02/13 05:15:34;;;;;;;9.32;5.57;;;4.30;56.80;;;;;;5012765;28;20419;-59
2022/02/13 05:18:00;;;;;;;12.02;5.40;;;4.30;57.10;;;;;;4995157;28;20034;-60
2022/02/13 05:20:26;;;;;;;10.38;5.93;;;4.20;57.30;;;;;;5013496;28;20022;-63
2022/02/13 05:22:51;;;;;;;8.55;5.22;;;4.20;57.50;;;;;;5013236;28;20026;-60
2022/02/13 05:25:18;;;;;;;7.55;5.50;;;4.20;57.50;;;;;;4995240;28;20046;-60
2022/02/13 05:27:43;;;;;;;10.45;5.57;;;4.10;57.60;;;;;;5013024;28;20030;-62
2022/02/13 05:30:10;;;;;;;8.98;5.53;;;4.20;57.80;;;;;;5012625;28;20463;-60
2022/02/13 05:32:35;;;;;;;9.73;5.95;;;4.10;57.90;;;;;;5013171;28;20033;-60
2022/02/13 05:35:01;;;;;;;9.70;5.82;;;4.10;58.10;;;;;;5012389;28;20072;-60
2022/02/13 05:37:29;;;;;;;8.73;5.78;;;4.10;58.20;;;;;;5012928;28;20122;-60
2022/02/13 05:39:55;;;;;;;11.95;6.70;;;4.00;58.20;;;;;;5012731;28;20491;-60
2022/02/13 05:42:23;;;;;;;8.75;5.97;;;4.00;58.40;;;;;;5012823;28;20030;-59
2022/02/13 05:44:50;;;;;;;9.50;6.05;;;3.90;58.50;;;;;;4995268;28;20033;-60
2022/02/13 05:47:15;;;;;;;9.52;5.95;;;3.90;58.60;;;;;;5012850;28;20084;-61
2022/02/13 05:49:41;;;;;;;8.60;5.68;;;3.90;58.60;;;;;;5012491;28;20464;-60
2022/02/13 05:52:07;;;;;;;12.43;6.13;;;3.90;58.70;;;;;;5012285;28;20069;-61
2022/02/13 05:54:32;;;;;;;10.70;6.00;;;3.90;58.60;;;;;;5012806;28;20108;-60
2022/02/13 05:56:58;;;;;;;8.32;5.68;;;3.90;58.70;;;;;;5012257;28;20030;-60
2022/02/13 05:59:24;;;;;;;8.70;5.75;;;3.90;58.90;;;;;;5012425;28;20030;-59
2022/02/13 06:04:33;;;;;;;8.45;5.25;;;3.90;59.00;;;;;;5012562;28;20487;-61
2022/02/13 06:06:59;;;;;;;11.00;6.43;;;3.90;58.90;;;;;;5011979;28;20029;-60
2022/02/13 06:09:25;;;;;;;9.13;6.43;;;3.90;58.80;;;;;;5012802;28;20361;-61
2022/02/13 06:11:51;;;;;;;9.52;6.10;;;3.90;58.80;;;;;;4994977;28;20026;-60
2022/02/13 06:14:17;;;;;;;8.98;5.88;;;4.00;59.40;;;;;;4994568;28;20029;-61
2022/02/13 06:16:43;;;;;;;9.77;6.03;;;4.00;58.70;;;;;;4995001;28;20022;-61
2022/02/13 06:19:09;;;;;;;10.80;6.00;;;4.00;58.70;;;;;;5012166;28;20038;-60
2022/02/13 06:21:34;;;;;;;9.82;5.63;;;4.00;58.70;;;;;;4994699;28;20117;-60
2022/02/13 06:24:01;;;;;;;9.52;6.45;;;3.90;58.80;;;;;;4994059;28;20037;-59
2022/02/13 06:26:26;;;;;;;9.73;6.05;;;3.90;58.90;;;;;;5012406;28;20428;-59
2022/02/13 06:28:52;;;;;;;9.15;5.82;;;3.90;58.90;;;;;;5012326;28;20049;-61
2022/02/13 06:31:18;;;;;;;9.07;5.93;;;3.90;58.90;;;;;;4993844;28;20030;-60
2022/02/13 06:33:44;;;;;;;11.43;6.22;;;3.90;58.90;;;;;;5012470;28;20523;-60
2022/02/13 06:36:28;;;;;;;8.18;5.80;;;3.90;58.90;;;;;;5011583;28;20126;-61
2022/02/13 06:38:54;;;;;;;8.27;5.47;;;3.90;58.90;;;;;;5012311;28;20148;-60
2022/02/13 06:41:20;;;;;;;10.02;5.88;;;3.90;58.90;;;;;;5011741;28;20100;-61
2022/02/13 06:43:46;;;;;;;10.35;6.10;;;4.00;58.90;;;;;;5012032;28;20465;-61
2022/02/13 06:46:11;;;;;;;11.48;5.68;;;4.00;58.70;;;;;;5010937;28;20373;-61
2022/02/13 06:48:40;;;;;;;8.00;4.65;;;4.00;58.70;;;;;;5012339;28;20030;-60
2022/02/13 06:51:07;;;;;;;10.38;5.65;;;4.00;58.60;;;;;;5011357;28;20048;-60
2022/02/13 06:53:35;;;;;;;8.57;5.43;;;4.10;58.50;;;;;;4994807;28;20030;-60
2022/02/13 06:56:02;;;;;;;9.90;5.93;;;4.10;58.40;;;;;;4993688;28;20037;-60
2022/02/13 06:58:28;;;;;;;10.88;6.50;;;4.00;58.30;;;;;;5011777;28;20033;-62
2022/02/13 07:00:54;;;;;;;9.27;5.72;;;4.10;58.50;;;;;;4994534;28;20040;-60
2022/02/13 07:03:19;;;;;;;9.40;5.88;;;4.00;58.40;;;;;;5011333;28;20033;-62
2022/02/13 07:05:46;;;;;;;10.98;6.13;;;4.00;58.70;;;;;;4993945;28;20069;-60
2022/02/13 07:08:13;;;;;;;8.38;5.35;;;4.00;58.60;;;;;;4993040;28;20034;-60
2022/02/13 07:10:41;;;;;;;8.55;5.28;;;4.10;58.70;;;;;;5010754;28;20054;-61
2022/02/13 07:13:07;;;;;;;9.85;6.03;;;4.10;58.90;;;;;;5010165;28;20026;-60
2022/02/13 07:15:35;;;;;;;13.63;6.35;;;4.00;58.70;;;;;;5010938;28;20029;-61
2022/02/13 07:18:04;;;;;;;9.05;5.47;;;4.10;58.80;;;;;;5010375;28;20484;-60
2022/02/13 07:20:29;;;;;;;8.80;5.45;;;4.10;58.70;;;;;;5009553;28;20034;-61
2022/02/13 07:22:56;;;;;;;10.45;5.57;;;4.10;58.60;;;;;;5010744;28;20477;-61
2022/02/13 07:25:25;;;;;;;11.50;6.28;;;4.10;58.70;;;;;;5009691;28;20064;-61
2022/02/13 07:27:51;;;;;;;10.73;6.25;;;4.20;58.70;;;;;;5010387;28;20469;-61
2022/02/13 07:30:17;;;;;;;9.70;6.03;;;4.20;58.50;;;;;;4993717;28;20304;-56
2022/02/13 07:32:44;;;;;;;10.20;6.15;;;4.30;58.50;;;;;;5011021;28;20032;-59
2022/02/13 07:35:10;;;;;;;11.20;6.25;;;4.30;58.40;;;;;;5010797;28;20548;-57
2022/02/13 07:37:36;;;;;;;13.77;11.32;;;4.40;58.30;;;;;;5011247;28;20126;-59
2022/02/13 07:40:03;;;;;;;12.48;9.70;;;5.80;58.60;;;;;;5010387;28;20460;-58
2022/02/13 07:42:29;;;;;;;10.60;8.32;;;9.40;53.30;;;;;;5011950;28;20380;-60
2022/02/13 07:44:55;;;;;;;13.82;5.82;;;12.20;45.80;;;;;;4997176;28;20026;-58
2022/02/13 07:47:22;;;;;;;10.07;8.93;;;12.00;41.80;;;;;;5014281;28;20396;-58
2022/02/13 07:49:53;;;;;;;10.80;9.18;;;11.20;42.70;;;;;;4995636;28;20088;-58
2022/02/13 07:52:20;;;;;;;12.88;8.65;;;13.20;41.90;;;;;;5013815;28;20045;-58
2022/02/13 07:54:46;;;;;;;9.63;8.07;;;15.20;38.00;;;;;;5014476;28;20033;-59
2022/02/13 07:59:59;;;;;;;9.88;8.30;;;17.50;34.50;;;;;;5014748;28;20053;-61
2022/02/13 08:02:25;;;;;;;12.95;7.80;;;18.50;32.40;;;;;;4997002;28;20026;-59
2022/02/13 08:04:51;;;;;;;9.70;8.18;;;19.30;31.40;;;;;;5014674;28;20083;-61
2022/02/13 08:07:17;;;;;;;9.88;7.95;;;20.00;30.50;;;;;;4996637;28;20037;-60
2022/02/13 08:09:42;;;;;;;9.38;7.57;;;20.60;29.70;;;;;;4996949;28;20030;-61
2022/02/13 08:12:10;;;;;;;10.70;8.07;;;20.90;28.60;;;;;;5013984;28;20033;-63
2022/02/13 08:14:36;;;;;;;9.55;7.88;;;20.90;28.40;;;;;;5013983;28;20029;-62
2022/02/13 08:17:03;;;;;;;11.02;8.40;;;20.60;27.80;;;;;;4995872;28;20084;-61
2022/02/13 08:19:35;;;;;;;8.88;7.45;;;19.20;28.70;;;;;;4996668;28;20034;-62
2022/02/13 08:22:04;;;;;;;8.82;5.82;;;17.20;29.50;;;;;;5014479;28;20029;-61
2022/02/13 08:24:31;;;;;;;10.32;6.78;;;15.20;32.50;;;;;;4995215;28;20053;-62
2022/02/13 08:26:57;;;;;;;8.85;6.05;;;13.60;34.60;;;;;;4995578;28;20038;-61
2022/02/13 08:29:22;;;;;;;10.38;5.47;;;12.60;36.40;;;;;;4994976;28;20030;-62
2022/02/13 08:31:48;;;;;;;7.13;5.70;;;11.80;37.50;;;;;;4996440;28;20076;-61
2022/02/13 08:34:14;;;;;;;7.88;5.57;;;11.10;38.80;;;;;;4995722;28;20466;-62
2022/02/13 08:36:39;;;;;;;8.85;5.80;;;10.60;40.00;;;;;;5013939;28;20037;-61
2022/02/13 08:39:08;;;;;;;10.93;6.70;;;10.20;41.00;;;;;;5012909;28;20030;-63
2022/02/13 08:41:34;;;;;;;9.63;6.05;;;9.70;42.10;;;;;;4993643;28;20026;-63
2022/02/13 08:44:00;;;;;;;10.50;5.88;;;9.40;42.80;;;;;;4994482;28;20045;-60
2022/02/13 08:46:25;;;;;;;9.50;6.03;;;9.10;43.70;;;;;;5012707;28;20408;-62
2022/02/13 08:48:51;;;;;;;10.43;6.03;;;8.80;44.00;;;;;;4993786;28;20129;-62
2022/02/13 08:51:17;;;;;;;9.07;6.05;;;8.60;44.50;;;;;;5012726;28;20030;-60
2022/02/13 08:53:42;;;;;;;9.70;6.00;;;8.40;45.10;;;;;;5012685;28;20026;-61
2022/02/13 08:56:08;;;;;;;13.45;6.93;;;8.20;45.80;;;;;;5012948;28;20022;-67
2022/02/13 08:58:34;;;;;;;9.93;6.35;;;8.10;46.40;;;;;;5012041;28;20030;-61
2022/02/13 09:01:00;;;;;;;12.05;6.80;;;8.00;46.70;;;;;;5011973;28;20034;-60
2022/02/13 09:03:27;;;;;;;12.50;7.25;;;7.90;46.90;;;;;;4994251;28;20030;-63
2022/02/13 09:05:54;;;;;;;11.45;6.63;;;7.90;47.50;;;;;;5012080;28;20057;-61
2022/02/13 09:08:19;;;;;;;12.30;7.70;;;7.90;47.90;;;;;;5012066;28;20080;-61
2022/02/13 09:10:45;;;;;;;14.15;6.63;;;7.80;47.80;;;;;;4995489;28;20025;-60
2022/02/13 09:13:11;;;;;;;10.27;7.05;;;7.80;48.00;;;;;;5011841;28;20397;-60
2022/02/13 09:15:38;;;;;;;11.45;7.28;;;7.80;48.30;;;;;;5012477;28;20077;-61
2022/02/13 09:18:04;;;;;;;11.50;7.00;;;7.80;48.40;;;;;;5012266;28;20112;-66
2022/02/13 09:20:30;;;;;;;11.60;7.13;;;7.70;48.40;;;;;;5012138;28;20038;-62
2022/02/13 09:22:56;;;;;;;12.30;7.32;;;7.80;48.60;;;;;;5012905;28;20026;-61
2022/02/13 09:25:22;;;;;;;11.75;6.90;;;7.80;48.70;;;;;;5012550;28;20378;-61
2022/02/13 09:27:48;;;;;;;11.68;7.43;;;7.90;48.70;;;;;;5013120;28;20045;-61
2022/02/13 09:30:13;;;;;;;11.68;6.75;;;7.90;48.50;;;;;;4993449;28;20205;-62
2022/02/13 09:32:40;;;;;;;11.55;6.78;;;8.00;48.60;;;;;;5011774;28;20198;-61
2022/02/13 09:35:08;;;;;;;13.30;6.90;;;7.90;48.40;;;;;;5011878;28;20092;-61
2022/02/13 09:37:33;;;;;;;10.50;6.65;;;7.90;48.30;;;;;;4994324;28;20026;-61
2022/02/13 09:40:00;;;;;;;8.27;5.82;;;7.90;48.20;;;;;;5013147;28;20038;-61
2022/02/13 09:42:26;;;;;;;9.45;6.60;;;7.90;47.80;;;;;;4994385;28;20109;-62
2022/02/13 09:44:52;;;;;;;16.23;7.28;;;8.00;48.10;;;;;;5013175;28;20056;-60
2022/02/13 09:47:19;;;;;;;10.27;6.60;;;8.00;48.20;;;;;;4994119;28;20080;-61
2022/02/13 09:49:45;;;;;;;12.77;6.93;;;8.00;48.10;;;;;;5013063;28;20044;-63
2022/02/13 09:52:11;;;;;;;9.88;6.72;;;8.10;48.20;;;;;;5011615;28;20449;-64
2022/02/13 09:54:37;;;;;;;11.02;6.65;;;8.20;48.10;;;;;;5011557;28;20018;-60
2022/02/13 10:00:17;;;;;;;11.50;6.90;;;8.30;47.70;;;;;;5012119;28;20091;-62
2022/02/13 10:02:44;;;;;;;12.02;6.70;;;8.40;47.20;;;;;;5011954;28;20025;-63
2022/02/13 10:05:12;;;;;;;11.52;7.47;;;8.40;47.20;;;;;;4993468;28;20034;-60
2022/02/13 10:07:39;;;;;;;12.35;6.80;;;8.40;47.30;;;;;;4994528;28;20037;-61
2022/02/13 10:10:07;;;;;;;10.43;6.57;;;8.50;47.10;;;;;;5010814;28;20057;-66
2022/02/13 10:12:42;;;;;;;11.30;6.72;;;8.50;46.50;;;;;;4993492;28;20034;-61
2022/02/13 10:15:21;;;;;;;13.82;8.07;;;8.60;46.20;;;;;;5009831;28;20026;-62
2022/02/13 10:18:06;;;;;;;11.38;7.25;;;8.60;45.90;;;;;;5010942;28;20029;-61
2022/02/13 10:20:35;;;;;;;24.35;12.27;;;8.60;45.80;;;;;;5011110;28;20069;-62
2022/02/13 10:23:06;;;;;;;9.90;6.00;;;8.70;46.60;;;;;;5010753;28;20032;-62
2022/02/13 10:25:32;;;;;;;9.60;6.03;;;8.80;45.30;;;;;;5010969;28;20128;-61
2022/02/13 10:27:57;;;;;;;9.60;6.00;;;8.80;45.20;;;;;;5010689;28;20034;-60
2022/02/13 10:30:47;;;;;;;10.68;6.75;;;8.90;45.40;;;;;;5010828;28;20041;-66
2022/02/13 10:33:29;;;;;;;16.15;9.38;;;9.00;44.80;;;;;;4993044;28;20037;-62
2022/02/13 10:36:12;;;;;;;10.90;7.18;;;9.10;44.50;;;;;;4993865;28;20329;-61
2022/02/13 10:38:42;;;;;;;9.20;6.53;;;9.20;44.60;;;;;;5011291;28;20065;-62
2022/02/13 10:41:21;;;;;;;13.02;7.50;;;9.20;44.20;;;;;;5010843;28;20084;-66
2022/02/13 10:44:03;;;;;;;12.70;6.88;;;9.10;44.20;;;;;;5009818;28;20030;-62
2022/02/13 10:46:32;;;;;;;12.15;7.72;;;9.10;45.00;;;;;;5009732;28;20018;-62
2022/02/13 10:48:58;;;;;;;13.23;7.60;;;9.30;44.20;;;;;;5010399;28;20057;-61
2022/02/13 10:51:25;;;;;;;14.23;7.78;;;9.30;44.50;;;;;;4992737;28;20036;-61
2022/02/13 10:53:52;;;;;;;15.25;8.68;;;9.40;43.90;;;;;;5011196;28;20040;-61
2022/02/13 10:56:19;;;;;;;13.35;8.02;;;9.50;43.20;;;;;;4992933;28;20495;-61
2022/02/13 10:58:45;;;;;;;11.23;7.20;;;9.50;43.40;;;;;;5010940;28;20026;-61
2022/02/13 11:01:15;;;;;;;11.23;6.68;;;9.50;43.20;;;;;;5009633;28;20034;-65
2022/02/13 11:03:48;;;;;;;11.55;7.10;;;9.60;42.50;;;;;;5010927;28;20079;-61
2022/02/13 11:06:14;;;;;;;11.40;7.28;;;9.60;42.90;;;;;;5009901;28;20030;-61
2022/02/13 11:08:51;;;;;;;12.68;7.55;;;9.60;42.80;;;;;;5009543;28;20049;-62
2022/02/13 11:11:19;;;;;;;11.02;6.90;;;9.60;42.60;;;;;;4991877;28;20491;-64
2022/02/13 11:13:45;;;;;;;11.32;6.40;;;9.60;42.50;;;;;;5008746;28;20123;-62
2022/02/13 11:16:46;;;;;;;12.32;6.68;;;9.60;42.50;;;;;;5008545;28;20033;-63
2022/02/13 11:19:13;;;;;;;11.43;6.47;;;9.50;42.30;;;;;;4951398;29;20040;-61
2022/02/13 11:21:41;;;;;;;9.90;6.93;;;9.50;42.70;;;;;;4997720;28;20038;-61
2022/02/13 11:24:22;;;;;;;11.85;7.45;;;9.50;42.60;;;;;;5012362;28;20029;-66
2022/02/13 11:26:47;;;;;;;10.85;6.82;;;9.50;42.90;;;;;;5013195;28;20022;-67
2022/02/13 11:29:16;;;;;;;12.90;7.57;;;9.70;42.70;;;;;;5012044;28;20503;-64
2022/02/13 11:31:50;;;;;;;11.32;7.55;;;9.80;42.60;;;;;;5002231;28;20028;-62
2022/02/13 11:34:38;;;;;;;11.43;7.18;;;9.80;42.40;;;;;;4973921;28;20466;-67
2022/02/13 11:37:10;;;;;;;9.88;6.80;;;9.90;42.10;;;;;;4995780;28;20399;-63
2022/02/13 11:39:45;;;;;;;9.30;6.80;;;9.90;41.90;;;;;;4990870;28;20029;-63
2022/02/13 11:42:23;;;;;;;11.75;6.78;;;10.00;42.00;;;;;;5008683;28;20026;-69
2022/02/13 11:44:52;;;;;;;13.05;7.38;;;10.10;42.00;;;;;;5005423;28;20022;-67
2022/02/13 11:47:40;;;;;;;10.57;7.43;;;10.20;41.40;;;;;;5009780;28;20053;-65
2022/02/13 11:50:09;;;;;;;14.45;7.80;;;9.90;41.40;;;;;;5009869;28;20029;-61
2022/02/13 11:52:52;;;;;;;11.07;7.18;;;9.70;41.80;;;;;;4994502;28;20026;-62
2022/02/13 11:55:19;;;;;;;13.35;7.55;;;9.60;42.00;;;;;;5011608;28;20108;-65
2022/02/13 11:58:08;;;;;;;10.13;6.63;;;9.80;42.20;;;;;;4990270;28;20033;-66
2022/02/13 12:00:38;;;;;;;11.27;7.10;;;10.10;41.00;;;;;;5011369;28;20037;-62
2022/02/13 12:03:13;;;;;;;12.80;6.85;;;10.80;41.00;;;;;;5010505;28;20488;-58
2022/02/13 12:05:38;;;;;;;10.63;7.13;;;11.10;39.50;;;;;;4991863;28;20022;-60
2022/02/13 12:08:24;;;;;;;11.23;7.35;;;10.80;39.80;;;;;;5011343;28;20500;-59
2022/02/13 12:10:59;;;;;;;17.40;7.00;;;10.60;40.30;;;;;;4994565;28;20052;-62
2022/02/13 12:13:26;;;;;;;13.10;7.28;;;10.50;40.40;;;;;;5011610;28;20030;-64
2022/02/13 12:15:55;;;;;;;9.95;6.55;;;10.40;40.70;;;;;;5009925;28;20068;-57
2022/02/13 12:18:21;;;;;;;11.93;7.18;;;10.40;40.80;;;;;;5010869;28;20485;-55
2022/02/13 12:20:48;;;;;;;9.45;6.65;;;10.50;40.80;;;;;;5011801;28;20061;-62
2022/02/13 12:23:17;;;;;;;12.27;6.95;;;10.40;40.50;;;;;;5007719;28;20160;-57
2022/02/13 12:25:47;;;;;;;11.82;6.70;;;10.40;40.60;;;;;;4994030;28;20045;-57
2022/02/13 12:28:16;;;;;;;13.43;6.88;;;10.20;40.80;;;;;;4991865;28;20484;-58
2022/02/13 12:30:51;;;;;;;10.45;6.38;;;10.10;40.70;;;;;;4993002;28;20022;-61
2022/02/13 12:33:18;;;;;;;12.50;7.15;;;10.00;40.90;;;;;;4991836;28;20109;-60
2022/02/13 12:35:45;;;;;;;9.77;6.60;;;10.00;41.10;;;;;;4993806;28;20026;-60
2022/02/13 12:38:12;;;;;;;20.67;13.73;;;10.10;41.50;;;;;;5011809;28;20452;-63
2022/02/13 12:40:43;;;;;;;11.18;6.93;;;10.20;41.20;;;;;;5010368;28;20432;-61
2022/02/13 12:43:10;;;;;;;13.25;7.78;;;10.60;41.20;;;;;;5009762;28;20372;-66
2022/02/13 12:45:38;;;;;;;11.02;6.43;;;11.00;39.70;;;;;;5009253;28;20441;-60
2022/02/13 12:48:07;;;;;;;11.65;7.10;;;11.40;39.50;;;;;;5010591;28;20057;-66
2022/02/13 12:50:38;;;;;;;10.13;6.50;;;11.70;38.20;;;;;;5012212;28;20025;-61
2022/02/13 12:53:06;;;;;;;13.65;7.03;;;11.40;38.10;;;;;;5010473;28;20453;-59
2022/02/13 12:55:33;;;;;;;11.82;8.48;;;11.10;38.90;;;;;;5009972;28;20033;-63
2022/02/13 12:58:00;;;;;;;10.38;6.32;;;10.80;39.30;;;;;;5011563;28;20021;-63
2022/02/13 13:00:31;;;;;;;9.50;6.07;;;10.60;39.80;;;;;;4992925;28;20058;-66